Terminal Aerodrome Forecast
Issued by NWS

Home | Current Version | Previous Version | Text Only | Print | Product List | Glossary On
Versions: 1 2 3 4 5 6 7 8 9 10 11 12
000
FTUS45 KABQ 250537
TAFROW
TAF
KROW 250537Z 2506/2606 35007KT P6SM SKC
     FM251200 01013KT P6SM SKC
     FM251500 01019G27KT P6SM VCSH FEW035 BKN060
     FM252100 01010G18KT P6SM VCSH SCT025 BKN050
     FM260000 02008KT P6SM SCT060=

USA.gov is the U.S. government's official web portal to all federal, state and local government web resources and services.